createdAt,value
2018-04-20T00:01:12.976Z,4.90
2018-04-20T00:03:40.483Z,5.40
2018-04-20T00:06:07.964Z,4.43
2018-04-20T00:08:35.577Z,7.07
2018-04-20T00:11:03.069Z,4.95
2018-04-20T00:13:30.600Z,5.82
2018-04-20T00:15:58.241Z,7.15
2018-04-20T00:18:25.792Z,4.53
2018-04-20T00:20:54.056Z,4.15
2018-04-20T00:23:21.661Z,4.45
2018-04-20T00:25:49.517Z,6.80
2018-04-20T00:28:17.101Z,4.30
2018-04-20T00:30:44.756Z,4.40
2018-04-20T00:33:14.839Z,4.45
2018-04-20T00:47:22.682Z,5.93
2018-04-20T00:49:50.968Z,5.25
2018-04-20T00:52:19.112Z,6.40
2018-04-20T00:54:49.833Z,4.05
2018-04-20T00:57:18.054Z,4.00
2018-04-20T00:59:46.376Z,5.05
2018-04-20T01:02:13.995Z,3.87
2018-04-20T01:04:42.330Z,4.40
2018-04-20T01:07:09.931Z,4.78
2018-04-20T01:09:37.962Z,4.40
2018-04-20T01:12:05.493Z,4.20
2018-04-20T01:14:33.671Z,3.65
2018-04-20T01:17:01.468Z,3.95
2018-04-20T01:19:29.922Z,4.75
2018-04-20T01:33:39.838Z,3.92
2018-04-20T01:36:07.332Z,6.35
2018-04-20T01:53:13.448Z,5.93
2018-04-20T01:55:41.150Z,4.90
2018-04-20T01:58:08.677Z,4.18
2018-04-20T02:00:36.976Z,4.47
2018-04-20T02:03:05.568Z,5.53
2018-04-20T02:05:33.056Z,4.97
2018-04-20T02:08:00.617Z,5.10
2018-04-20T02:10:28.185Z,3.85
2018-04-20T02:12:55.788Z,4.30
2018-04-20T02:15:26.313Z,5.85
2018-04-20T02:17:57.363Z,7.53
2018-04-20T02:22:59.796Z,4.50
2018-04-20T02:25:28.577Z,5.72
2018-04-20T02:30:57.645Z,6.70
2018-04-20T02:33:25.359Z,5.25
2018-04-20T02:36:01.733Z,5.25
2018-04-20T02:38:37.145Z,5.47
2018-04-20T02:41:05.492Z,6.90
2018-04-20T02:43:35.329Z,5.00
2018-04-20T02:46:05.109Z,4.80
2018-04-20T02:51:27.542Z,4.80
2018-04-20T02:53:55.176Z,6.97
2018-04-20T02:56:22.781Z,5.30
2018-04-20T02:58:51.061Z,5.35
2018-04-20T03:01:35.785Z,5.32
2018-04-20T03:04:05.261Z,5.28
2018-04-20T03:06:38.081Z,7.72
2018-04-20T03:09:07.433Z,8.50
2018-04-20T03:11:37.668Z,5.90
2018-04-20T03:14:06.168Z,6.32
2018-04-20T03:16:36.706Z,5.25
2018-04-20T03:19:05.419Z,5.87
2018-04-20T03:21:33.013Z,5.93
2018-04-20T03:24:01.004Z,6.60
2018-04-20T03:26:28.560Z,6.97
2018-04-20T03:28:56.210Z,8.35
2018-04-20T03:31:24.589Z,5.57
2018-04-20T03:33:52.228Z,6.10
2018-04-20T03:36:20.624Z,5.68
2018-04-20T03:38:48.897Z,5.40
2018-04-20T03:41:16.954Z,5.78
2018-04-20T03:43:44.928Z,5.50
2018-04-20T03:46:12.440Z,5.10
2018-04-20T03:48:40.069Z,5.15
2018-04-20T03:51:08.437Z,6.25
2018-04-20T03:53:35.997Z,7.93
2018-04-20T03:58:59.191Z,7.75
2018-04-20T04:01:27.491Z,7.10
2018-04-20T04:03:57.591Z,8.50
2018-04-20T04:06:25.240Z,6.05
2018-04-20T04:08:53.707Z,6.28
2018-04-20T04:11:21.270Z,5.80
2018-04-20T04:13:48.842Z,6.93
2018-04-20T04:16:29.832Z,6.00
2018-04-20T04:19:10.057Z,6.20
2018-04-20T04:41:33.981Z,5.78
2018-04-20T04:44:04.721Z,5.90
2018-04-20T04:46:32.413Z,6.55
2018-04-20T04:49:01.748Z,7.95
2018-04-20T04:51:31.852Z,6.15
2018-04-20T04:54:02.610Z,8.18
2018-04-20T04:56:30.415Z,7.72
2018-04-20T04:59:00.312Z,6.50
2018-04-20T05:18:33.412Z,7.97
2018-04-20T05:21:02.511Z,6.55
2018-04-20T05:23:30.195Z,6.12
2018-04-20T05:26:07.391Z,7.05
2018-04-20T05:45:42.027Z,6.72
2018-04-20T05:48:10.911Z,5.45
2018-04-20T05:50:39.242Z,6.87
2018-04-20T05:53:07.236Z,5.10
2018-04-20T05:55:36.272Z,5.82
2018-04-20T05:58:04.551Z,8.15
2018-04-20T06:00:33.453Z,8.52
2018-04-20T06:03:00.987Z,7.20
2018-04-20T06:05:35.264Z,6.05
2018-04-20T06:08:03.335Z,6.50
2018-04-20T06:10:30.865Z,11.30
2018-04-20T06:12:58.454Z,13.62
2018-04-20T06:15:26.064Z,12.80
2018-04-20T06:17:55.320Z,12.63
2018-04-20T06:20:22.857Z,10.80
2018-04-20T06:22:50.430Z,9.55
2018-04-20T06:25:20.634Z,7.50
2018-04-20T06:27:50.047Z,6.30
2018-04-20T06:30:17.578Z,6.20
2018-04-20T06:32:45.288Z,6.60
2018-04-20T06:35:31.277Z,9.38
2018-04-20T06:37:58.945Z,9.38
2018-04-20T06:58:16.983Z,6.55
2018-04-20T07:03:18.725Z,8.82
2018-04-20T07:06:07.225Z,6.30
2018-04-20T07:08:40.841Z,7.25
2018-04-20T07:11:09.894Z,6.85
2018-04-20T08:23:07.134Z,10.05
2018-04-20T08:25:34.650Z,7.12
2018-04-20T08:28:02.268Z,7.70
2018-04-20T08:30:30.756Z,7.45
2018-04-20T08:33:04.090Z,9.10
2018-04-20T08:35:32.737Z,9.07
2018-04-20T08:41:12.318Z,7.47
2018-04-20T08:43:40.728Z,10.60
2018-04-20T08:46:24.025Z,11.50
2018-04-20T09:56:38.660Z,10.63
2018-04-20T09:59:06.335Z,10.60
2018-04-20T10:01:33.886Z,9.60
2018-04-20T10:04:01.387Z,11.27
2018-04-20T10:06:28.909Z,10.20
2018-04-20T10:14:45.252Z,9.90
2018-04-20T10:17:12.859Z,12.43
2018-04-20T10:19:40.332Z,9.90
2018-04-20T10:22:07.817Z,8.90
2018-04-20T10:24:35.479Z,8.80
2018-04-20T10:27:02.966Z,8.40
2018-04-20T10:29:31.244Z,9.77
2018-04-20T10:31:59.525Z,9.03
2018-04-20T10:34:27.003Z,10.43
2018-04-20T10:36:54.503Z,9.60
2018-04-20T10:39:22.161Z,11.70
2018-04-20T10:41:49.649Z,12.17
2018-04-20T10:44:17.145Z,11.70
2018-04-20T10:46:44.652Z,10.63
2018-04-20T10:49:12.139Z,9.60
2018-04-20T10:51:39.633Z,11.37
2018-04-20T10:54:09.576Z,14.37
2018-04-20T11:13:43.167Z,9.17
2018-04-20T11:16:10.657Z,9.80
2018-04-20T11:18:39.655Z,10.30
2018-04-20T11:21:07.096Z,9.27
2018-04-20T11:23:34.572Z,9.37
2018-04-20T11:26:02.152Z,11.63
2018-04-20T11:28:30.414Z,10.13
2018-04-20T11:30:57.877Z,10.30
2018-04-20T11:33:26.159Z,9.50
2018-04-20T11:35:54.433Z,9.20
2018-04-20T11:38:22.699Z,12.40
2018-04-20T11:40:50.332Z,11.03
2018-04-20T11:43:17.848Z,11.07
2018-04-20T11:45:45.378Z,12.07
2018-04-20T11:48:12.900Z,10.77
2018-04-20T11:50:40.469Z,10.67
2018-04-20T11:53:07.948Z,10.17
2018-04-20T11:55:35.621Z,11.30
2018-04-20T11:58:03.118Z,11.37
2018-04-20T12:00:30.649Z,10.60
2018-04-20T12:02:59.081Z,8.60
2018-04-20T12:05:26.620Z,9.17
2018-04-20T12:07:54.092Z,11.63
2018-04-20T12:10:23.061Z,10.13
2018-04-20T12:12:50.586Z,9.23
2018-04-20T12:15:18.128Z,11.13
2018-04-20T12:17:45.638Z,10.23
2018-04-20T12:20:13.348Z,8.80
2018-04-20T12:22:42.205Z,9.80
2018-04-20T12:25:11.069Z,10.90
2018-04-20T12:27:39.486Z,12.37
2018-04-20T12:30:07.158Z,13.00
2018-04-20T12:32:34.764Z,9.60
2018-04-20T12:35:03.177Z,11.40
2018-04-20T12:37:30.897Z,12.20
2018-04-20T12:39:59.386Z,10.17
2018-04-20T12:42:27.959Z,8.93
2018-04-20T12:44:55.622Z,8.30
2018-04-20T12:47:23.283Z,10.10
2018-04-20T12:49:52.514Z,8.37
2018-04-20T12:52:20.215Z,7.97
2018-04-20T12:54:47.868Z,7.97
2018-04-20T12:57:15.756Z,7.30
2018-04-20T12:59:43.807Z,7.23
2018-04-20T13:02:11.396Z,8.03
2018-04-20T13:04:40.331Z,7.83
2018-04-20T13:07:11.916Z,8.40
2018-04-20T13:09:39.784Z,8.43
2018-04-20T13:12:08.333Z,7.63
2018-04-20T13:14:38.040Z,8.50
2018-04-20T13:17:05.696Z,7.80
2018-04-20T13:19:33.342Z,9.13
2018-04-20T13:22:00.964Z,8.93
2018-04-20T13:24:28.970Z,6.50
2018-04-20T13:26:59.429Z,4.80
2018-04-20T13:29:28.188Z,7.20
2018-04-20T13:32:02.940Z,5.93
2018-04-20T13:34:38.228Z,5.73
2018-04-20T19:23:39.686Z,0.50
2018-04-20T19:26:08.415Z,0.50
2018-04-20T19:28:37.782Z,0.50
2018-04-20T19:31:10.251Z,0.50
2018-04-20T19:33:37.793Z,0.50
2018-04-20T19:36:05.477Z,0.50
2018-04-20T19:38:33.081Z,0.50
2018-04-20T19:41:00.813Z,0.50
2018-04-20T19:43:28.614Z,0.50
2018-04-20T19:45:56.173Z,0.50
2018-04-20T20:00:47.306Z,0.50
2018-04-20T20:06:16.149Z,0.50
2018-04-20T20:08:43.655Z,0.50
2018-04-20T20:11:11.152Z,0.50
2018-04-20T20:13:38.630Z,0.50
2018-04-20T20:16:06.399Z,0.50
2018-04-20T20:18:33.873Z,0.50
2018-04-20T20:21:02.099Z,0.50
2018-04-20T20:23:29.653Z,0.50
2018-04-20T20:26:12.893Z,0.50
2018-04-20T20:28:40.441Z,0.50
2018-04-20T20:31:07.912Z,0.50
2018-04-20T20:33:35.463Z,0.50
2018-04-20T20:36:02.935Z,0.50
2018-04-20T20:38:35.417Z,0.70
2018-04-20T20:41:20.976Z,0.50
2018-04-20T20:43:48.617Z,0.50
2018-04-20T20:46:16.118Z,0.50
2018-04-20T20:48:43.576Z,0.50
2018-04-20T20:51:11.077Z,0.50
2018-04-20T20:53:38.599Z,0.50
2018-04-20T20:56:06.062Z,0.50
2018-04-20T20:58:34.993Z,0.50
2018-04-20T21:01:02.647Z,0.50
2018-04-20T21:03:30.886Z,0.50
2018-04-20T21:05:58.344Z,0.50
2018-04-20T21:08:25.860Z,0.50
2018-04-20T21:10:53.350Z,0.50
2018-04-20T21:13:20.804Z,0.60
2018-04-20T21:15:48.312Z,0.50
2018-04-20T21:18:16.555Z,0.50
2018-04-20T21:20:44.043Z,0.50
2018-04-20T21:23:12.486Z,0.50
2018-04-20T21:35:24.801Z,0.50
2018-04-20T21:37:52.268Z,0.50
2018-04-20T21:40:19.719Z,0.60
2018-04-20T21:42:47.276Z,1.05
2018-04-20T21:45:14.730Z,0.50
2018-04-20T21:47:43.573Z,0.50
2018-04-20T21:50:11.756Z,0.50
2018-04-20T21:52:39.705Z,0.50
2018-04-20T21:55:07.219Z,0.50
2018-04-20T21:57:57.339Z,0.50
2018-04-20T22:00:24.792Z,0.50
2018-04-20T22:02:54.211Z,0.50
2018-04-20T22:05:21.662Z,0.50
2018-04-20T22:07:49.937Z,0.50
2018-04-20T22:10:17.397Z,0.60
2018-04-20T22:12:44.857Z,0.50
2018-04-20T22:15:25.196Z,0.50
2018-04-20T22:17:53.002Z,0.50
2018-04-20T22:20:20.461Z,0.50
2018-04-20T22:22:47.924Z,0.50
2018-04-20T22:25:15.384Z,0.50
2018-04-20T22:27:42.874Z,0.50
2018-04-20T22:30:11.096Z,0.50
2018-04-20T22:32:45.506Z,0.50
2018-04-20T22:35:12.954Z,0.50
2018-04-20T22:37:40.401Z,0.50
2018-04-20T22:40:09.346Z,0.50
2018-04-20T22:42:36.802Z,0.50
2018-04-20T22:45:04.265Z,0.50
2018-04-20T22:47:31.723Z,0.50
2018-04-20T22:49:59.270Z,0.50
2018-04-20T22:52:40.434Z,0.50
2018-04-20T22:55:07.928Z,0.50
2018-04-20T22:57:35.395Z,0.50
2018-04-20T23:00:07.801Z,0.50
2018-04-20T23:02:35.254Z,0.50
2018-04-20T23:05:02.704Z,0.50
2018-04-20T23:07:31.015Z,0.50
2018-04-20T23:09:58.506Z,0.50
2018-04-20T23:12:25.952Z,0.50
2018-04-20T23:14:53.415Z,0.50
2018-04-20T23:17:20.908Z,0.50
2018-04-20T23:19:49.119Z,0.50
2018-04-20T23:22:16.587Z,0.50
2018-04-20T23:24:47.705Z,0.50
2018-04-20T23:27:15.176Z,0.50
2018-04-20T23:29:42.647Z,0.50
2018-04-20T23:32:10.113Z,0.50
2018-04-20T23:34:37.557Z,0.50
2018-04-20T23:37:05.176Z,0.50
2018-04-20T23:39:33.399Z,0.50
2018-04-20T23:42:01.057Z,0.50
2018-04-20T23:44:28.513Z,0.50
2018-04-20T23:46:55.968Z,0.50
2018-04-20T23:49:23.452Z,0.50
2018-04-20T23:51:51.116Z,0.50
2018-04-20T23:54:18.576Z,0.50
2018-04-20T23:56:46.162Z,0.50
2018-04-20T23:59:13.624Z,0.50
